^^
Station Historical Data
Daily Summary for January 21, 2018 Units:  Both    English   Metric
« Previous Day
Next Day »
Daily Weekly Monthly Yearly Custom
  High: Low: Average:
Temperature: TemperatureF °F /  -17.8 °C 66.4 °F /  19.1 °C 73.5 °F /  23.1 °C
Dew Point: DewpointF °F /  -17.8 °C 48.2 °F /  9 °C 52 °F /  11.1 °C
Humidity: Humidity% 39% 47%
Wind Speed: WindSpeedMPHmph /  0km/h - 6.8mph /  10.9km/h
Wind Gust: WindSpeedGustMPHmph /  0km/h - -
Wind- - ESE
Pressure: PressureIn in /  0 hPa 29.57 in /  1001.2 hPa -
Precipitation: 0.00 in /  0 mm    
Historical Graphs
 
 
Tabular Data for January 21, 2018
Time Temperature Dew Point Pressure Wind Wind Speed Wind Gust Humidity Rainfall Rate (Hourly) solar Conditions
TemperatureF °F /  -17.8 °C DewpointF °F /  -17.8 °C PressureInin /  0hPa Calm     Humidity% HourlyPrecipInin /  0mm SoftwareType W/m2 Conditions
08:20 71.2 °F /  21.8 °C 49.5 °F /  9.7 °C 29.65in /  1003.9hPa NNE 6.9mph /  11.1km/h 7.0mph /  11.3km/h 46% 0.00in /  0mm meteobridge W/m2
08:27 71.2 °F /  21.8 °C 49.5 °F /  9.7 °C 29.65in /  1003.9hPa North 2.9mph /  4.7km/h 5.0mph /  8km/h 46% 0.00in /  0mm meteobridge W/m2
08:33 71.1 °F /  21.7 °C 49.8 °F /  9.9 °C 29.66in /  1004.3hPa NNE 2.9mph /  4.7km/h 5.0mph /  8km/h 47% 0.00in /  0mm meteobridge W/m2
08:39 72.0 °F /  22.2 °C 50.0 °F /  10 °C 29.66in /  1004.3hPa NNE 4.9mph /  7.9km/h 6.0mph /  9.7km/h 46% 0.00in /  0mm meteobridge W/m2
08:45 72.3 °F /  22.4 °C 49.8 °F /  9.9 °C 29.66in /  1004.3hPa North 6.9mph /  11.1km/h 9.0mph /  14.5km/h 45% 0.00in /  0mm meteobridge W/m2
09:20 73.0 °F /  22.8 °C 49.3 °F /  9.6 °C 29.66in /  1004.3hPa NNE 4.9mph /  7.9km/h 6.0mph /  9.7km/h 43% 0.00in /  0mm meteobridge W/m2
09:26 73.2 °F /  22.9 °C 48.7 °F /  9.3 °C 29.67in /  1004.6hPa NE 2.9mph /  4.7km/h 11.0mph /  17.7km/h 42% 0.00in /  0mm meteobridge W/m2
09:32 73.2 °F /  22.9 °C 49.5 °F /  9.7 °C 29.67in /  1004.6hPa Calm   3.0mph /  4.8km/h 43% 0.00in /  0mm meteobridge W/m2
09:38 73.6 °F /  23.1 °C 49.1 °F /  9.5 °C 29.67in /  1004.6hPa Calm   2.0mph /  3.2km/h 42% 0.00in /  0mm meteobridge W/m2
09:44 73.6 °F /  23.1 °C 49.1 °F /  9.5 °C 29.67in /  1004.6hPa ENE 4.0mph /  6.4km/h 5.0mph /  8km/h 42% 0.00in /  0mm meteobridge W/m2
09:50 73.2 °F /  22.9 °C 48.7 °F /  9.3 °C 29.67in /  1004.6hPa NE 6.9mph /  11.1km/h 7.0mph /  11.3km/h 42% 0.00in /  0mm meteobridge W/m2
09:56 72.7 °F /  22.6 °C 48.2 °F /  9 °C 29.67in /  1004.6hPa ENE 6.0mph /  9.7km/h 7.0mph /  11.3km/h 42% 0.00in /  0mm meteobridge W/m2
10:02 72.5 °F /  22.5 °C 48.7 °F /  9.3 °C 29.67in /  1004.6hPa ENE 2.0mph /  3.2km/h 5.0mph /  8km/h 43% 0.00in /  0mm meteobridge W/m2
10:08 72.7 °F /  22.6 °C 48.2 °F /  9 °C 29.67in /  1004.6hPa East 6.0mph /  9.7km/h 8.0mph /  12.9km/h 42% 0.00in /  0mm meteobridge W/m2
10:15 72.9 °F /  22.7 °C 49.1 °F /  9.5 °C 29.67in /  1004.6hPa ESE 2.9mph /  4.7km/h 7.0mph /  11.3km/h 43% 0.00in /  0mm meteobridge W/m2
10:21 73.2 °F /  22.9 °C 48.7 °F /  9.3 °C 29.67in /  1004.6hPa ENE 2.0mph /  3.2km/h 5.0mph /  8km/h 42% 0.00in /  0mm meteobridge W/m2
10:27 73.8 °F /  23.2 °C 49.3 °F /  9.6 °C 29.68in /  1005hPa ENE 2.0mph /  3.2km/h 5.0mph /  8km/h 42% 0.00in /  0mm meteobridge W/m2
10:33 74.3 °F /  23.5 °C 50.4 °F /  10.2 °C 29.68in /  1005hPa NE 4.0mph /  6.4km/h 10.0mph /  16.1km/h 43% 0.00in /  0mm meteobridge W/m2
10:39 74.1 °F /  23.4 °C 50.2 °F /  10.1 °C 29.68in /  1005hPa NE 8.9mph /  14.3km/h 13.0mph /  20.9km/h 43% 0.00in /  0mm meteobridge W/m2
10:45 74.1 °F /  23.4 °C 50.2 °F /  10.1 °C 29.68in /  1005hPa NE 4.0mph /  6.4km/h 9.0mph /  14.5km/h 43% 0.00in /  0mm meteobridge W/m2
10:52 74.7 °F /  23.7 °C 50.7 °F /  10.4 °C 29.68in /  1005hPa NE 2.0mph /  3.2km/h 11.0mph /  17.7km/h 43% 0.00in /  0mm meteobridge W/m2
10:58 75.9 °F /  24.4 °C 51.3 °F /  10.7 °C 29.68in /  1005hPa SSE 2.0mph /  3.2km/h 9.0mph /  14.5km/h 42% 0.00in /  0mm meteobridge W/m2
11:04 77.0 °F /  25 °C 51.4 °F /  10.8 °C 29.67in /  1004.6hPa NE 4.9mph /  7.9km/h 17.0mph /  27.4km/h 41% 0.00in /  0mm meteobridge W/m2
11:10 76.3 °F /  24.6 °C 51.4 °F /  10.8 °C 29.67in /  1004.6hPa ENE 8.9mph /  14.3km/h 10.0mph /  16.1km/h 42% 0.00in /  0mm meteobridge W/m2
11:16 76.1 °F /  24.5 °C 52.0 °F /  11.1 °C 29.67in /  1004.6hPa NNE 0.9mph /  1.4km/h 7.0mph /  11.3km/h 43% 0.00in /  0mm meteobridge W/m2
11:22 75.7 °F /  24.3 °C 51.6 °F /  10.9 °C 29.67in /  1004.6hPa NE 8.1mph /  13km/h 10.0mph /  16.1km/h 43% 0.00in /  0mm meteobridge W/m2
11:28 77.2 °F /  25.1 °C 52.3 °F /  11.3 °C 29.67in /  1004.6hPa NNE 11.0mph /  17.7km/h 18.0mph /  29km/h 42% 0.00in /  0mm meteobridge W/m2
11:34 77.2 °F /  25.1 °C 52.3 °F /  11.3 °C 29.67in /  1004.6hPa South 4.0mph /  6.4km/h 12.0mph /  19.3km/h 42% 0.00in /  0mm meteobridge W/m2
11:40 77.5 °F /  25.3 °C 52.7 °F /  11.5 °C 29.67in /  1004.6hPa SE 8.9mph /  14.3km/h 11.0mph /  17.7km/h 42% 0.00in /  0mm meteobridge W/m2
11:46 78.1 °F /  25.6 °C 53.1 °F /  11.7 °C 29.67in /  1004.6hPa SE 2.9mph /  4.7km/h 18.0mph /  29km/h 42% 0.00in /  0mm meteobridge W/m2
11:53 77.2 °F /  25.1 °C 52.9 °F /  11.6 °C 29.65in /  1003.9hPa SE 10.1mph /  16.3km/h 16.0mph /  25.7km/h 43% 0.00in /  0mm meteobridge W/m2
11:59 76.5 °F /  24.7 °C 52.9 °F /  11.6 °C 29.65in /  1003.9hPa South 6.9mph /  11.1km/h 9.0mph /  14.5km/h 44% 0.00in /  0mm meteobridge W/m2
12:05 76.3 °F /  24.6 °C 52.2 °F /  11.2 °C 29.65in /  1003.9hPa SE 16.1mph /  25.9km/h 16.1mph /  25.9km/h 43% 0.00in /  0mm meteobridge W/m2
12:11 77.4 °F /  25.2 °C 52.5 °F /  11.4 °C 29.65in /  1003.9hPa NNE 12.1mph /  19.5km/h 12.1mph /  19.5km/h 42% 0.00in /  0mm meteobridge W/m2
12:17 78.6 °F /  25.9 °C 52.9 °F /  11.6 °C 29.65in /  1003.9hPa ENE 11.0mph /  17.7km/h 15.0mph /  24.1km/h 41% 0.00in /  0mm meteobridge W/m2
12:23 79.2 °F /  26.2 °C 52.7 °F /  11.5 °C 29.65in /  1003.9hPa NE 15.0mph /  24.1km/h 16.0mph /  25.7km/h 40% 0.00in /  0mm meteobridge W/m2
12:29 77.4 °F /  25.2 °C 51.8 °F /  11 °C 29.64in /  1003.6hPa South 16.1mph /  25.9km/h 19.0mph /  30.6km/h 41% 0.00in /  0mm meteobridge W/m2
12:35 77.0 °F /  25 °C 52.2 °F /  11.2 °C 29.65in /  1003.9hPa Calm   14.0mph /  22.5km/h 42% 0.00in /  0mm meteobridge W/m2
12:41 77.0 °F /  25 °C 52.9 °F /  11.6 °C 29.64in /  1003.6hPa ENE 6.0mph /  9.7km/h 17.0mph /  27.4km/h 43% 0.00in /  0mm meteobridge W/m2
12:48 77.7 °F /  25.4 °C 53.4 °F /  11.9 °C 29.63in /  1003.3hPa ESE 2.9mph /  4.7km/h 4.0mph /  6.4km/h 43% 0.00in /  0mm meteobridge W/m2
12:53 77.4 °F /  25.2 °C 53.1 °F /  11.7 °C 29.64in /  1003.6hPa SE 6.0mph /  9.7km/h 6.0mph /  9.7km/h 43% 0.00in /  0mm meteobridge W/m2
13:00 75.6 °F /  24.2 °C 52.7 °F /  11.5 °C 29.64in /  1003.6hPa South 4.9mph /  7.9km/h 13.0mph /  20.9km/h 45% 0.00in /  0mm meteobridge W/m2
13:06 75.4 °F /  24.1 °C 53.2 °F /  11.8 °C 29.63in /  1003.3hPa SE 6.0mph /  9.7km/h 11.0mph /  17.7km/h 46% 0.00in /  0mm meteobridge W/m2
13:12 75.4 °F /  24.1 °C 52.0 °F /  11.1 °C 29.63in /  1003.3hPa South 13.0mph /  20.9km/h 13.0mph /  20.9km/h 44% 0.00in /  0mm meteobridge W/m2
13:18 75.0 °F /  23.9 °C 52.2 °F /  11.2 °C 29.63in /  1003.3hPa South 8.9mph /  14.3km/h 22.0mph /  35.4km/h 45% 0.00in /  0mm meteobridge W/m2
13:24 77.4 °F /  25.2 °C 53.8 °F /  12.1 °C 29.62in /  1002.9hPa SSE 15.0mph /  24.1km/h 20.0mph /  32.2km/h 44% 0.00in /  0mm meteobridge W/m2
13:30 78.6 °F /  25.9 °C 53.6 °F /  12 °C 29.62in /  1002.9hPa Calm   15.0mph /  24.1km/h 42% 0.00in /  0mm meteobridge W/m2
13:36 78.4 °F /  25.8 °C 53.4 °F /  11.9 °C 29.62in /  1002.9hPa SSE 16.1mph /  25.9km/h 16.1mph /  25.9km/h 42% 0.00in /  0mm meteobridge W/m2
13:42 77.4 °F /  25.2 °C 53.1 °F /  11.7 °C 29.62in /  1002.9hPa South 13.0mph /  20.9km/h 14.0mph /  22.5km/h 43% 0.00in /  0mm meteobridge W/m2
13:48 77.4 °F /  25.2 °C 53.1 °F /  11.7 °C 29.61in /  1002.6hPa South 19.0mph /  30.6km/h 19.0mph /  30.6km/h 43% 0.00in /  0mm meteobridge W/m2
13:54 76.1 °F /  24.5 °C 52.5 °F /  11.4 °C 29.61in /  1002.6hPa South 11.0mph /  17.7km/h 23.0mph /  37km/h 44% 0.00in /  0mm meteobridge W/m2
14:00 75.9 °F /  24.4 °C 53.1 °F /  11.7 °C 29.61in /  1002.6hPa South 21.0mph /  33.8km/h 21.0mph /  33.8km/h 45% 0.00in /  0mm meteobridge W/m2
14:06 75.0 °F /  23.9 °C 52.9 °F /  11.6 °C 29.61in /  1002.6hPa South 4.0mph /  6.4km/h 16.0mph /  25.7km/h 46% 0.00in /  0mm meteobridge W/m2
14:12 74.8 °F /  23.8 °C 52.2 °F /  11.2 °C 29.61in /  1002.6hPa South 13.0mph /  20.9km/h 19.0mph /  30.6km/h 45% 0.00in /  0mm meteobridge W/m2
14:18 75.6 °F /  24.2 °C 52.7 °F /  11.5 °C 29.60in /  1002.3hPa ESE 4.9mph /  7.9km/h 12.0mph /  19.3km/h 45% 0.00in /  0mm meteobridge W/m2
14:24 75.9 °F /  24.4 °C 53.1 °F /  11.7 °C 29.60in /  1002.3hPa SSE 4.0mph /  6.4km/h 11.0mph /  17.7km/h 45% 0.00in /  0mm meteobridge W/m2
14:30 76.1 °F /  24.5 °C 53.2 °F /  11.8 °C 29.60in /  1002.3hPa South 14.1mph /  22.7km/h 23.0mph /  37km/h 45% 0.00in /  0mm meteobridge W/m2
14:36 76.1 °F /  24.5 °C 52.5 °F /  11.4 °C 29.60in /  1002.3hPa SSE 12.1mph /  19.5km/h 15.0mph /  24.1km/h 44% 0.00in /  0mm meteobridge W/m2
14:42 75.6 °F /  24.2 °C 52.7 °F /  11.5 °C 29.59in /  1001.9hPa SSW 28.0mph /  45.1km/h 30.0mph /  48.3km/h 45% 0.00in /  0mm meteobridge W/m2
14:48 75.0 °F /  23.9 °C 55.6 °F /  13.1 °C 29.59in /  1001.9hPa SSW 4.9mph /  7.9km/h 21.0mph /  33.8km/h 51% 0.00in /  0mm meteobridge W/m2
14:55 76.3 °F /  24.6 °C 55.2 °F /  12.9 °C 29.59in /  1001.9hPa SE 6.0mph /  9.7km/h 15.0mph /  24.1km/h 48% 0.00in /  0mm meteobridge W/m2
15:01 78.3 °F /  25.7 °C 54.5 °F /  12.5 °C 29.59in /  1001.9hPa SSE 4.0mph /  6.4km/h 17.0mph /  27.4km/h 44% 0.00in /  0mm meteobridge W/m2
15:07 77.2 °F /  25.1 °C 52.9 °F /  11.6 °C 29.59in /  1001.9hPa East 2.9mph /  4.7km/h 17.0mph /  27.4km/h 43% 0.00in /  0mm meteobridge W/m2
15:13 77.7 °F /  25.4 °C 53.4 °F /  11.9 °C 29.58in /  1001.6hPa SE 6.9mph /  11.1km/h 15.0mph /  24.1km/h 43% 0.00in /  0mm meteobridge W/m2
15:19 78.1 °F /  25.6 °C 53.1 °F /  11.7 °C 29.58in /  1001.6hPa SE 4.9mph /  7.9km/h 12.0mph /  19.3km/h 42% 0.00in /  0mm meteobridge W/m2
15:25 78.4 °F /  25.8 °C 52.2 °F /  11.2 °C 29.58in /  1001.6hPa NNE 2.9mph /  4.7km/h 21.0mph /  33.8km/h 40% 0.00in /  0mm meteobridge W/m2
15:31 77.7 °F /  25.4 °C 50.7 °F /  10.4 °C 29.58in /  1001.6hPa East 4.9mph /  7.9km/h 14.0mph /  22.5km/h 39% 0.00in /  0mm meteobridge W/m2
15:37 77.2 °F /  25.1 °C 54.1 °F /  12.3 °C 29.58in /  1001.6hPa North 0.9mph /  1.4km/h 12.0mph /  19.3km/h 45% 0.00in /  0mm meteobridge W/m2
15:43 76.1 °F /  24.5 °C 53.8 °F /  12.1 °C 29.57in /  1001.2hPa South 2.9mph /  4.7km/h 13.0mph /  20.9km/h 46% 0.00in /  0mm meteobridge W/m2
15:49 75.7 °F /  24.3 °C 53.4 °F /  11.9 °C 29.57in /  1001.2hPa North 6.0mph /  9.7km/h 15.0mph /  24.1km/h 46% 0.00in /  0mm meteobridge W/m2
15:55 75.7 °F /  24.3 °C 54.7 °F /  12.6 °C 29.57in /  1001.2hPa ENE 0.9mph /  1.4km/h 10.0mph /  16.1km/h 48% 0.00in /  0mm meteobridge W/m2
16:01 76.1 °F /  24.5 °C 55.6 °F /  13.1 °C 29.57in /  1001.2hPa NE 10.1mph /  16.3km/h 10.1mph /  16.3km/h 49% 0.00in /  0mm meteobridge W/m2
16:08 75.9 °F /  24.4 °C 55.4 °F /  13 °C 29.57in /  1001.2hPa SE 6.9mph /  11.1km/h 9.0mph /  14.5km/h 49% 0.00in /  0mm meteobridge W/m2
16:14 73.9 °F /  23.3 °C 53.1 °F /  11.7 °C 29.57in /  1001.2hPa SSE 6.9mph /  11.1km/h 23.0mph /  37km/h 48% 0.00in /  0mm meteobridge W/m2
16:20 73.6 °F /  23.1 °C 53.2 °F /  11.8 °C 29.57in /  1001.2hPa SSW 0.9mph /  1.4km/h 12.0mph /  19.3km/h 49% 0.00in /  0mm meteobridge W/m2
16:26 73.9 °F /  23.3 °C 53.1 °F /  11.7 °C 29.57in /  1001.2hPa South 10.1mph /  16.3km/h 10.1mph /  16.3km/h 48% 0.00in /  0mm meteobridge W/m2
16:32 74.8 °F /  23.8 °C 52.7 °F /  11.5 °C 29.57in /  1001.2hPa SSW 8.1mph /  13km/h 11.0mph /  17.7km/h 46% 0.00in /  0mm meteobridge W/m2
16:38 74.7 °F /  23.7 °C 52.5 °F /  11.4 °C 29.57in /  1001.2hPa SSE 4.9mph /  7.9km/h 22.0mph /  35.4km/h 46% 0.00in /  0mm meteobridge W/m2
16:44 74.1 °F /  23.4 °C 53.2 °F /  11.8 °C 29.57in /  1001.2hPa SE 4.9mph /  7.9km/h 7.0mph /  11.3km/h 48% 0.00in /  0mm meteobridge W/m2
16:50 73.8 °F /  23.2 °C 52.9 °F /  11.6 °C 29.57in /  1001.2hPa East 13.0mph /  20.9km/h 15.0mph /  24.1km/h 48% 0.00in /  0mm meteobridge W/m2
16:56 73.8 °F /  23.2 °C 52.9 °F /  11.6 °C 29.57in /  1001.2hPa East 4.0mph /  6.4km/h 9.0mph /  14.5km/h 48% 0.00in /  0mm meteobridge W/m2
17:03 73.9 °F /  23.3 °C 53.1 °F /  11.7 °C 29.57in /  1001.2hPa SSE 14.1mph /  22.7km/h 22.0mph /  35.4km/h 48% 0.00in /  0mm meteobridge W/m2
17:09 73.0 °F /  22.8 °C 53.2 °F /  11.8 °C 29.57in /  1001.2hPa SSW 4.9mph /  7.9km/h 15.0mph /  24.1km/h 50% 0.00in /  0mm meteobridge W/m2
17:15 73.4 °F /  23 °C 53.6 °F /  12 °C 29.57in /  1001.2hPa South 8.1mph /  13km/h 10.0mph /  16.1km/h 50% 0.00in /  0mm meteobridge W/m2
17:21 73.2 °F /  22.9 °C 52.9 °F /  11.6 °C 29.57in /  1001.2hPa South 13.0mph /  20.9km/h 19.0mph /  30.6km/h 49% 0.00in /  0mm meteobridge W/m2
17:27 72.7 °F /  22.6 °C 52.9 °F /  11.6 °C 29.57in /  1001.2hPa South 17.0mph /  27.4km/h 17.0mph /  27.4km/h 50% 0.00in /  0mm meteobridge W/m2
17:33 72.3 °F /  22.4 °C 52.7 °F /  11.5 °C 29.57in /  1001.2hPa SE 8.9mph /  14.3km/h 18.0mph /  29km/h 50% 0.00in /  0mm meteobridge W/m2
17:40 72.0 °F /  22.2 °C 52.3 °F /  11.3 °C 29.57in /  1001.2hPa ESE 4.9mph /  7.9km/h 16.0mph /  25.7km/h 50% 0.00in /  0mm meteobridge W/m2
17:46 72.1 °F /  22.3 °C 52.5 °F /  11.4 °C 29.57in /  1001.2hPa SE 8.9mph /  14.3km/h 15.0mph /  24.1km/h 50% 0.00in /  0mm meteobridge W/m2
17:52 72.1 °F /  22.3 °C 52.5 °F /  11.4 °C 29.57in /  1001.2hPa South 8.9mph /  14.3km/h 20.0mph /  32.2km/h 50% 0.00in /  0mm meteobridge W/m2
17:58 72.0 °F /  22.2 °C 52.9 °F /  11.6 °C 29.58in /  1001.6hPa ENE 6.9mph /  11.1km/h 13.0mph /  20.9km/h 51% 0.00in /  0mm meteobridge W/m2
18:04 71.8 °F /  22.1 °C 53.2 °F /  11.8 °C 29.58in /  1001.6hPa ESE 2.0mph /  3.2km/h 9.0mph /  14.5km/h 52% 0.00in /  0mm meteobridge W/m2
18:10 71.8 °F /  22.1 °C 53.8 °F /  12.1 °C 29.58in /  1001.6hPa Calm   3.0mph /  4.8km/h 53% 0.00in /  0mm meteobridge W/m2
18:16 72.0 °F /  22.2 °C 54.9 °F /  12.7 °C 29.58in /  1001.6hPa NE 8.1mph /  13km/h 9.0mph /  14.5km/h 55% 0.00in /  0mm meteobridge W/m2
18:22 70.9 °F /  21.6 °C 54.9 °F /  12.7 °C 29.58in /  1001.6hPa NNE 4.9mph /  7.9km/h 11.0mph /  17.7km/h 57% 0.00in /  0mm meteobridge W/m2
18:28 70.7 °F /  21.5 °C 54.3 °F /  12.4 °C 29.59in /  1001.9hPa NE 6.9mph /  11.1km/h 9.0mph /  14.5km/h 56% 0.00in /  0mm meteobridge W/m2
18:35 71.1 °F /  21.7 °C 54.1 °F /  12.3 °C 29.59in /  1001.9hPa NE 2.0mph /  3.2km/h 5.0mph /  8km/h 55% 0.00in /  0mm meteobridge W/m2
18:41 71.2 °F /  21.8 °C 54.3 °F /  12.4 °C 29.59in /  1001.9hPa NNE 6.0mph /  9.7km/h 10.0mph /  16.1km/h 55% 0.00in /  0mm meteobridge W/m2
18:47 70.5 °F /  21.4 °C 54.5 °F /  12.5 °C 29.59in /  1001.9hPa SW 2.0mph /  3.2km/h 10.0mph /  16.1km/h 57% 0.00in /  0mm meteobridge W/m2
18:53 69.4 °F /  20.8 °C 54.5 °F /  12.5 °C 29.59in /  1001.9hPa Calm   5.0mph /  8km/h 59% 0.00in /  0mm meteobridge W/m2
18:59 69.1 °F /  20.6 °C 54.7 °F /  12.6 °C 29.60in /  1002.3hPa Calm   4.0mph /  6.4km/h 60% 0.00in /  0mm meteobridge W/m2
19:05 68.9 °F /  20.5 °C 54.9 °F /  12.7 °C 29.61in /  1002.6hPa Calm   4.0mph /  6.4km/h 61% 0.00in /  0mm meteobridge W/m2
19:11 68.9 °F /  20.5 °C 54.9 °F /  12.7 °C 29.60in /  1002.3hPa South 2.9mph /  4.7km/h 6.0mph /  9.7km/h 61% 0.00in /  0mm meteobridge W/m2
19:17 67.6 °F /  19.8 °C 54.7 °F /  12.6 °C 29.60in /  1002.3hPa South 11.0mph /  17.7km/h 13.0mph /  20.9km/h 63% 0.00in /  0mm meteobridge W/m2
19:23 66.9 °F /  19.4 °C 54.9 °F /  12.7 °C 29.61in /  1002.6hPa South 12.1mph /  19.5km/h 12.1mph /  19.5km/h 65% 0.00in /  0mm meteobridge W/m2
19:30 66.6 °F /  19.2 °C 54.9 °F /  12.7 °C 29.62in /  1002.9hPa South 10.1mph /  16.3km/h 13.0mph /  20.9km/h 66% 0.00in /  0mm meteobridge W/m2
19:36 66.4 °F /  19.1 °C 54.7 °F /  12.6 °C 29.62in /  1002.9hPa SSW 6.0mph /  9.7km/h 6.0mph /  9.7km/h 66% 0.00in /  0mm meteobridge W/m2
19:42 66.4 °F /  19.1 °C 54.7 °F /  12.6 °C 29.63in /  1003.3hPa SSW 6.0mph /  9.7km/h -999.0mph /  -1607.7km/h 66% 0.00in /  0mm meteobridge W/m2
19:49 66.4 °F /  19.1 °C 54.7 °F /  12.6 °C 29.63in /  1003.3hPa SSW 6.0mph /  9.7km/h -999.0mph /  -1607.7km/h 66% 0.00in /  0mm meteobridge W/m2
Regenstein, Windhoek, Namibia
Compliments of Weather Underground - 2.5 mb